createdAt,value
2022-08-17T00:00:34.492Z,9.02
2022-08-17T00:03:08.444Z,9.27
2022-08-17T00:05:41.205Z,8.95
2022-08-17T00:08:11.087Z,9.18
2022-08-17T00:10:39.770Z,10.02
2022-08-17T00:13:09.334Z,9.70
2022-08-17T00:15:37.164Z,8.85
2022-08-17T00:19:01.792Z,9.55
2022-08-17T00:20:53.545Z,11.35
2022-08-17T00:23:22.668Z,9.35
2022-08-17T00:25:50.993Z,9.80
2022-08-17T00:28:19.504Z,9.65
2022-08-17T00:30:53.504Z,9.90
2022-08-17T00:33:24.606Z,10.00
2022-08-17T00:35:53.596Z,10.70
2022-08-17T00:38:23.604Z,9.88
2022-08-17T00:40:55.915Z,9.23
2022-08-17T00:43:29.952Z,9.50
2022-08-17T00:45:58.237Z,10.13
2022-08-17T00:48:29.113Z,9.55
2022-08-17T00:51:02.557Z,10.70
2022-08-17T00:53:34.053Z,10.90
2022-08-17T00:56:04.206Z,10.52
2022-08-17T00:58:35.939Z,11.23
2022-08-17T01:01:05.205Z,10.80
2022-08-17T01:03:33.768Z,10.38
2022-08-17T01:06:02.893Z,11.90
2022-08-17T01:08:33.049Z,12.57
2022-08-17T01:11:03.115Z,11.20
2022-08-17T01:13:41.167Z,10.60
2022-08-17T01:16:16.555Z,10.40
2022-08-17T01:18:46.191Z,10.50
2022-08-17T01:21:21.245Z,11.20
2022-08-17T01:23:50.467Z,10.75
2022-08-17T01:26:19.436Z,11.27
2022-08-17T01:28:54.602Z,11.85
2022-08-17T01:31:25.570Z,11.45
2022-08-17T01:33:53.694Z,11.32
2022-08-17T01:36:22.491Z,10.93
2022-08-17T01:38:51.757Z,10.77
2022-08-17T01:41:22.913Z,11.13
2022-08-17T01:43:55.007Z,11.10
2022-08-17T01:46:24.983Z,10.75
2022-08-17T01:48:52.819Z,10.48
2022-08-17T01:51:21.458Z,10.15
2022-08-17T01:53:53.620Z,10.10
2022-08-17T01:56:25.235Z,9.80
2022-08-17T01:58:54.194Z,10.18
2022-08-17T02:01:24.784Z,10.93
2022-08-17T02:03:53.240Z,9.98
2022-08-17T02:06:28.481Z,10.07
2022-08-17T02:09:03.505Z,10.90
2022-08-17T02:11:33.550Z,10.75
2022-08-17T02:14:04.090Z,10.73
2022-08-17T02:16:37.323Z,10.32
2022-08-17T02:19:07.045Z,11.13
2022-08-17T02:21:34.965Z,10.45
2022-08-17T02:24:05.408Z,11.35
2022-08-17T02:26:33.386Z,11.63
2022-08-17T02:29:01.100Z,10.07
2022-08-17T02:31:31.064Z,10.52
2022-08-17T02:34:03.874Z,9.95
2022-08-17T02:36:33.561Z,9.82
2022-08-17T02:39:01.807Z,10.32
2022-08-17T02:41:31.002Z,10.57
2022-08-17T02:43:58.777Z,10.95
2022-08-17T02:46:27.077Z,10.40
2022-08-17T02:48:54.978Z,10.85
2022-08-17T02:51:22.858Z,9.85
2022-08-17T02:53:50.856Z,10.95
2022-08-17T02:56:18.920Z,11.27
2022-08-17T02:58:48.049Z,10.27
2022-08-17T03:01:15.815Z,11.10
2022-08-17T03:03:43.801Z,11.77
2022-08-17T03:06:11.634Z,11.88
2022-08-17T03:08:40.565Z,11.40
2022-08-17T03:11:08.494Z,11.10
2022-08-17T03:13:36.334Z,11.02
2022-08-17T03:16:05.777Z,11.80
2022-08-17T03:18:33.690Z,11.85
2022-08-17T03:21:04.344Z,11.00
2022-08-17T03:23:32.701Z,10.80
2022-08-17T03:26:00.988Z,11.25
2022-08-17T03:28:29.877Z,11.15
2022-08-17T03:30:57.650Z,11.43
2022-08-17T03:33:26.776Z,11.50
2022-08-17T03:35:54.555Z,11.90
2022-08-17T03:38:22.372Z,12.18
2022-08-17T03:40:56.328Z,11.73
2022-08-17T03:43:28.791Z,11.68
2022-08-17T03:46:27.624Z,11.43
2022-08-17T03:49:17.155Z,11.88
2022-08-17T03:52:02.690Z,11.27
2022-08-17T03:54:47.939Z,12.98
2022-08-17T03:57:16.335Z,11.85
2022-08-17T03:59:45.029Z,11.15
2022-08-17T04:02:16.528Z,11.43
2022-08-17T04:04:45.741Z,11.55
2022-08-17T04:07:13.531Z,11.23
2022-08-17T04:09:42.884Z,10.80
2022-08-17T04:12:10.906Z,11.77
2022-08-17T04:14:51.952Z,12.23
2022-08-17T04:17:22.087Z,11.65
2022-08-17T04:19:51.176Z,11.30
2022-08-17T04:22:32.622Z,11.20
2022-08-17T04:25:03.863Z,9.98
2022-08-17T04:27:31.768Z,10.27
2022-08-17T04:29:59.589Z,10.48
2022-08-17T04:33:19.178Z,11.45
2022-08-17T04:35:20.639Z,11.10
2022-08-17T04:37:48.425Z,11.55
2022-08-17T04:40:34.730Z,11.18
2022-08-17T04:43:04.530Z,11.18
2022-08-17T04:45:32.731Z,11.23
2022-08-17T04:48:01.094Z,11.60
2022-08-17T04:50:30.181Z,10.52
2022-08-17T04:52:58.119Z,11.02
2022-08-17T04:55:26.213Z,10.20
2022-08-17T04:57:54.064Z,10.60
2022-08-17T05:00:21.915Z,10.88
2022-08-17T05:02:51.143Z,10.20
2022-08-17T05:05:20.827Z,10.40
2022-08-17T05:07:52.353Z,10.13
2022-08-17T05:10:20.784Z,10.60
2022-08-17T05:12:49.462Z,10.98
2022-08-17T05:15:17.327Z,9.80
2022-08-17T05:17:48.110Z,9.93
2022-08-17T05:20:16.013Z,10.07
2022-08-17T05:22:52.373Z,10.45
2022-08-17T05:25:22.553Z,10.82
2022-08-17T05:27:53.962Z,9.27
2022-08-17T05:30:22.628Z,9.73
2022-08-17T05:32:55.429Z,9.63
2022-08-17T05:35:24.174Z,9.25
2022-08-17T05:37:54.168Z,8.95
2022-08-17T05:40:25.943Z,9.75
2022-08-17T05:43:04.197Z,9.38
2022-08-17T05:45:55.691Z,9.63
2022-08-17T05:48:21.727Z,10.20
2022-08-17T05:51:24.870Z,9.63
2022-08-17T05:54:07.819Z,10.23
2022-08-17T05:56:52.692Z,9.75
2022-08-17T05:59:30.346Z,9.68
2022-08-17T06:02:06.270Z,11.05
2022-08-17T06:04:46.149Z,11.27
2022-08-17T06:07:21.722Z,10.70
2022-08-17T06:09:59.382Z,11.40
2022-08-17T06:12:41.018Z,11.73
2022-08-17T06:15:24.625Z,12.40
2022-08-17T06:17:56.896Z,11.63
2022-08-17T06:20:28.040Z,12.40
2022-08-17T06:23:02.789Z,12.63
2022-08-17T06:25:37.992Z,11.77
2022-08-17T06:28:09.487Z,11.52
2022-08-17T06:30:59.657Z,10.25
2022-08-17T06:33:34.091Z,10.18
2022-08-17T06:36:09.790Z,10.45
2022-08-17T06:38:45.403Z,10.15
2022-08-17T06:41:21.829Z,10.38
2022-08-17T06:44:07.909Z,9.20
2022-08-17T06:46:38.369Z,10.00
2022-08-17T06:49:14.838Z,9.02
2022-08-17T06:51:46.578Z,9.93
2022-08-17T06:54:21.278Z,9.38
2022-08-17T06:56:58.340Z,8.40
2022-08-17T06:59:55.924Z,8.68
2022-08-17T07:02:28.940Z,9.05
2022-08-17T07:04:57.648Z,8.25
2022-08-17T07:07:43.286Z,8.68
2022-08-17T07:10:11.798Z,8.65
2022-08-17T07:12:44.091Z,8.55
2022-08-17T07:15:15.655Z,9.02
2022-08-17T07:17:48.386Z,9.18
2022-08-17T07:20:20.537Z,9.13
2022-08-17T07:22:59.830Z,8.23
2022-08-17T07:25:30.451Z,8.45
2022-08-17T07:28:02.430Z,8.75
2022-08-17T07:30:44.682Z,8.60
2022-08-17T07:33:20.253Z,8.63
2022-08-17T07:35:50.133Z,8.38
2022-08-17T07:38:25.647Z,8.40
2022-08-17T07:41:03.660Z,8.63
2022-08-17T07:43:34.894Z,8.23
2022-08-17T07:46:39.114Z,8.27
2022-08-17T07:49:33.496Z,7.30
2022-08-17T07:52:26.978Z,7.75
2022-08-17T07:54:52.091Z,7.18
2022-08-17T07:57:35.562Z,7.03
2022-08-17T08:00:31.848Z,7.32
2022-08-17T08:03:18.196Z,7.03
2022-08-17T08:05:52.404Z,6.93
2022-08-17T08:08:26.606Z,6.50
2022-08-17T08:11:04.356Z,6.95
2022-08-17T08:13:33.174Z,6.20
2022-08-17T08:16:21.491Z,6.72
2022-08-17T08:18:56.897Z,6.38
2022-08-17T08:21:36.494Z,5.35
2022-08-17T08:24:22.711Z,5.63
2022-08-17T08:26:59.020Z,5.28
2022-08-17T08:29:37.972Z,4.88
2022-08-17T08:32:14.415Z,4.43
2022-08-17T08:35:01.886Z,4.72
2022-08-17T08:37:43.533Z,4.20
2022-08-17T08:40:26.574Z,4.50
2022-08-17T08:43:03.462Z,4.20
2022-08-17T08:45:39.165Z,3.53
2022-08-17T08:48:23.055Z,4.07
2022-08-17T08:51:14.704Z,4.32
2022-08-17T08:53:49.106Z,3.80
2022-08-17T08:56:23.161Z,3.80
2022-08-17T08:58:54.910Z,3.58
2022-08-17T09:01:28.758Z,4.25
2022-08-17T09:04:24.573Z,3.90
2022-08-17T09:07:06.092Z,3.90
2022-08-17T09:09:41.109Z,3.97
2022-08-17T09:12:15.368Z,4.07
2022-08-17T09:14:49.872Z,3.30
2022-08-17T09:17:22.230Z,3.40
2022-08-17T09:19:55.577Z,3.80
2022-08-17T09:22:31.635Z,3.58
2022-08-17T09:25:06.957Z,3.25
2022-08-17T09:27:46.383Z,3.10
2022-08-17T09:30:15.623Z,3.70
2022-08-17T09:32:47.061Z,3.20
2022-08-17T09:35:19.936Z,3.60
2022-08-17T09:37:56.960Z,3.65
2022-08-17T09:40:29.683Z,3.63
2022-08-17T09:43:02.701Z,3.60
2022-08-17T09:45:36.279Z,3.42
2022-08-17T09:48:12.182Z,2.75
2022-08-17T09:51:03.747Z,2.83
2022-08-17T09:53:34.923Z,2.90
2022-08-17T09:56:29.942Z,2.90
2022-08-17T09:59:16.838Z,3.17
2022-08-17T10:01:50.514Z,3.00
2022-08-17T10:04:40.870Z,2.88
2022-08-17T10:07:16.225Z,3.35
2022-08-17T10:09:56.418Z,3.35
2022-08-17T10:12:34.368Z,3.60
2022-08-17T10:15:15.537Z,3.60
2022-08-17T10:18:09.035Z,3.53
2022-08-17T10:20:46.632Z,3.40
2022-08-17T10:23:36.776Z,3.45
2022-08-17T10:26:16.095Z,3.45
2022-08-17T10:28:50.881Z,3.58
2022-08-17T10:31:40.053Z,3.28
2022-08-17T10:34:44.246Z,3.80
2022-08-17T10:37:34.053Z,3.25
2022-08-17T10:40:19.881Z,3.58
2022-08-17T10:42:52.116Z,3.38
2022-08-17T10:45:26.438Z,3.55
2022-08-17T10:48:05.853Z,3.88
2022-08-17T10:50:49.658Z,3.60
2022-08-17T10:53:50.652Z,3.40
2022-08-17T10:56:23.177Z,4.05
2022-08-17T10:58:54.443Z,3.60
2022-08-17T11:01:46.677Z,3.47
2022-08-17T11:04:32.050Z,4.03
2022-08-17T11:07:08.641Z,3.67
2022-08-17T11:09:53.506Z,4.03
2022-08-17T11:12:36.807Z,3.90
2022-08-17T11:15:24.916Z,3.85
2022-08-17T11:18:46.840Z,3.88
2022-08-17T11:21:52.008Z,3.53
2022-08-17T11:24:23.178Z,3.80
2022-08-17T11:27:12.050Z,3.97
2022-08-17T11:29:53.579Z,4.30
2022-08-17T11:32:37.676Z,4.55
2022-08-17T11:35:13.703Z,4.10
2022-08-17T11:37:54.426Z,4.05
2022-08-17T11:40:41.238Z,3.85
2022-08-17T11:43:28.030Z,3.60
2022-08-17T11:46:06.214Z,3.75
2022-08-17T11:48:59.252Z,3.83
2022-08-17T11:52:05.427Z,3.78
2022-08-17T11:54:44.058Z,3.55
2022-08-17T11:57:47.452Z,3.50
2022-08-17T12:00:49.629Z,3.67
2022-08-17T12:03:24.751Z,3.70
2022-08-17T12:06:01.953Z,3.38
2022-08-17T12:08:32.612Z,3.42
2022-08-17T12:11:05.389Z,3.70
2022-08-17T12:13:48.373Z,3.95
2022-08-17T12:16:17.771Z,3.30
2022-08-17T12:18:51.259Z,3.30
2022-08-17T12:21:32.896Z,3.47
2022-08-17T12:24:07.420Z,3.45
2022-08-17T12:26:37.756Z,3.58
2022-08-17T12:29:09.300Z,3.42
2022-08-17T12:31:48.291Z,3.20
2022-08-17T12:34:19.005Z,3.20
2022-08-17T12:36:49.370Z,3.65
2022-08-17T12:39:21.794Z,3.08
2022-08-17T12:42:01.546Z,3.47
2022-08-17T12:44:32.355Z,3.40
2022-08-17T12:47:19.393Z,3.70
2022-08-17T12:49:51.378Z,3.47
2022-08-17T12:52:23.656Z,3.78
2022-08-17T12:54:55.400Z,3.35
2022-08-17T12:57:28.260Z,3.20
2022-08-17T12:59:59.747Z,3.88
2022-08-17T13:02:32.119Z,3.78
2022-08-17T13:05:02.241Z,3.60
2022-08-17T13:07:34.311Z,3.70
2022-08-17T13:10:02.871Z,3.78
2022-08-17T13:12:35.176Z,3.97
2022-08-17T13:15:03.498Z,4.07
2022-08-17T13:17:35.781Z,3.40
2022-08-17T13:20:06.189Z,3.25
2022-08-17T13:22:34.078Z,4.00
2022-08-17T13:25:05.506Z,3.80
2022-08-17T13:27:34.921Z,3.80
2022-08-17T13:30:08.211Z,3.45
2022-08-17T13:32:43.000Z,4.00
2022-08-17T13:35:39.259Z,3.72
2022-08-17T13:38:10.907Z,3.63
2022-08-17T13:40:52.925Z,3.80
2022-08-17T13:43:44.952Z,3.83
2022-08-17T13:46:19.662Z,3.88
2022-08-17T13:48:57.045Z,3.50
2022-08-17T13:51:28.846Z,3.45
2022-08-17T13:54:03.573Z,3.75
2022-08-17T13:56:39.524Z,4.47
2022-08-17T13:59:12.260Z,3.70
2022-08-17T14:01:42.102Z,3.60
2022-08-17T14:04:12.550Z,3.35
2022-08-17T14:06:52.275Z,3.30
2022-08-17T14:09:23.835Z,3.40
2022-08-17T14:11:52.727Z,3.60
2022-08-17T14:14:23.602Z,3.50
2022-08-17T14:16:51.642Z,3.70
2022-08-17T14:19:21.844Z,5.20
2022-08-17T14:21:50.165Z,4.13
2022-08-17T14:24:23.599Z,3.50
2022-08-17T14:26:53.182Z,4.00
2022-08-17T14:29:24.291Z,3.53
2022-08-17T14:31:54.447Z,3.38
2022-08-17T14:34:22.856Z,3.70
2022-08-17T14:36:50.963Z,3.60
2022-08-17T14:39:21.010Z,3.72
2022-08-17T14:41:49.102Z,3.47
2022-08-17T14:44:17.042Z,3.50
2022-08-17T14:46:46.306Z,3.60
2022-08-17T14:49:15.617Z,3.60
2022-08-17T14:51:44.249Z,3.30
2022-08-17T14:54:32.977Z,3.30
2022-08-17T14:57:22.566Z,3.30
2022-08-17T14:59:54.614Z,3.92
2022-08-17T15:02:30.234Z,3.30
2022-08-17T15:05:00.301Z,3.47
2022-08-17T15:07:30.099Z,3.30
2022-08-17T15:10:00.777Z,3.78
2022-08-17T15:12:32.765Z,3.28
2022-08-17T15:15:01.764Z,3.15
2022-08-17T15:17:45.277Z,3.58
2022-08-17T15:20:15.926Z,3.40
2022-08-17T15:22:45.191Z,3.47
2022-08-17T15:25:14.136Z,3.20
2022-08-17T15:27:42.134Z,3.58
2022-08-17T15:30:11.704Z,3.13
2022-08-17T15:32:50.995Z,3.42
2022-08-17T15:35:19.909Z,3.25
2022-08-17T15:37:55.551Z,3.38
2022-08-17T15:40:23.305Z,3.25
2022-08-17T15:42:51.231Z,3.80
2022-08-17T15:45:24.550Z,3.45
2022-08-17T15:47:53.859Z,3.63
2022-08-17T15:50:21.722Z,3.60
2022-08-17T15:52:56.342Z,3.40
2022-08-17T15:55:24.475Z,3.22
2022-08-17T15:57:53.026Z,3.17
2022-08-17T16:00:23.936Z,3.40
2022-08-17T16:03:32.004Z,3.50
2022-08-17T16:05:42.436Z,3.33
2022-08-17T16:08:11.125Z,3.40
2022-08-17T16:10:42.498Z,3.88
2022-08-17T16:13:17.596Z,3.60
2022-08-17T16:15:51.075Z,3.42
2022-08-17T16:18:30.725Z,5.25
2022-08-17T16:21:19.038Z,3.83
2022-08-17T16:23:47.018Z,2.95
2022-08-17T16:26:14.788Z,3.63
2022-08-17T16:28:42.544Z,3.65
2022-08-17T16:31:10.454Z,3.70
2022-08-17T16:33:40.267Z,3.60
2022-08-17T16:36:08.913Z,3.70
2022-08-17T16:38:38.509Z,3.63
2022-08-17T16:41:07.134Z,3.60
2022-08-17T16:43:36.008Z,4.00
2022-08-17T16:46:03.852Z,3.65
2022-08-17T16:48:31.808Z,3.70
2022-08-17T16:51:04.433Z,3.90
2022-08-17T16:53:32.602Z,3.60
2022-08-17T16:56:00.424Z,3.92
2022-08-17T16:58:28.237Z,3.70
2022-08-17T17:00:59.387Z,3.95
2022-08-17T17:03:30.005Z,3.80
2022-08-17T17:06:08.006Z,3.65
2022-08-17T17:08:43.603Z,3.90
2022-08-17T17:11:15.394Z,3.78
2022-08-17T17:13:47.755Z,3.80
2022-08-17T17:16:21.516Z,4.00
2022-08-17T17:19:01.755Z,4.20
2022-08-17T17:21:45.073Z,3.90
2022-08-17T17:24:17.862Z,4.05
2022-08-17T17:26:59.736Z,3.72
2022-08-17T17:29:48.216Z,4.20
2022-08-17T17:32:22.441Z,4.05
2022-08-17T17:34:55.050Z,4.18
2022-08-17T17:37:33.101Z,3.97
2022-08-17T17:40:05.606Z,3.88
2022-08-17T17:42:34.220Z,4.47
2022-08-17T17:45:08.422Z,4.45
2022-08-17T17:47:38.005Z,3.75
2022-08-17T17:50:08.408Z,4.22
2022-08-17T17:52:47.562Z,4.15
2022-08-17T17:55:25.857Z,4.20
2022-08-17T17:58:04.184Z,4.30
2022-08-17T18:00:40.123Z,4.22
2022-08-17T18:03:20.362Z,4.40
2022-08-17T18:06:09.732Z,4.68
2022-08-17T18:08:55.496Z,4.22
2022-08-17T18:11:39.502Z,4.47
2022-08-17T18:14:17.233Z,4.82
2022-08-17T18:16:46.560Z,4.40
2022-08-17T18:19:16.349Z,4.43
2022-08-17T18:21:49.736Z,4.82
2022-08-17T18:24:30.330Z,4.35
2022-08-17T18:26:59.771Z,4.07
2022-08-17T18:29:43.661Z,4.72
2022-08-17T18:32:28.685Z,4.55
2022-08-17T18:34:59.094Z,4.70
2022-08-17T18:37:37.774Z,4.55
2022-08-17T18:40:30.042Z,4.75
2022-08-17T18:43:07.177Z,4.70
2022-08-17T18:45:42.640Z,4.70
2022-08-17T18:48:29.674Z,4.38
2022-08-17T18:51:05.873Z,4.72
2022-08-17T18:53:37.402Z,4.57
2022-08-17T18:56:30.526Z,4.65
2022-08-17T18:59:04.692Z,5.38
2022-08-17T19:01:52.695Z,4.90
2022-08-17T19:04:33.890Z,4.80
2022-08-17T19:07:26.298Z,4.78
2022-08-17T19:09:57.901Z,4.63
2022-08-17T19:12:31.963Z,4.68
2022-08-17T19:15:01.585Z,4.88
2022-08-17T19:17:45.083Z,4.70
2022-08-17T19:20:18.114Z,5.15
2022-08-17T19:23:04.509Z,5.13
2022-08-17T19:25:35.640Z,5.00
2022-08-17T19:28:22.487Z,5.00
2022-08-17T19:30:55.785Z,4.65
2022-08-17T19:33:23.742Z,5.03
2022-08-17T19:36:01.770Z,5.18
2022-08-17T19:38:43.120Z,5.65
2022-08-17T19:41:20.230Z,5.53
2022-08-17T19:44:09.538Z,5.90
2022-08-17T19:46:50.094Z,5.70
2022-08-17T19:49:34.453Z,6.00
2022-08-17T19:52:19.004Z,5.80
2022-08-17T19:54:55.426Z,5.75
2022-08-17T19:57:33.620Z,5.45
2022-08-17T20:00:06.394Z,5.60
2022-08-17T20:02:42.524Z,5.35
2022-08-17T20:05:16.275Z,5.55
2022-08-17T20:07:50.744Z,5.88
2022-08-17T20:10:29.609Z,6.13
2022-08-17T20:13:03.950Z,6.25
2022-08-17T20:15:38.093Z,5.93
2022-08-17T20:18:14.266Z,6.40
2022-08-17T20:20:48.515Z,6.60
2022-08-17T20:23:43.025Z,6.30
2022-08-17T20:26:19.718Z,6.20
2022-08-17T20:29:08.715Z,7.03
2022-08-17T20:31:47.156Z,6.07
2022-08-17T20:34:36.747Z,6.32
2022-08-17T20:37:09.123Z,6.65
2022-08-17T20:39:40.371Z,6.50
2022-08-17T20:42:30.009Z,6.97
2022-08-17T20:45:02.119Z,7.10
2022-08-17T20:47:34.932Z,7.07
2022-08-17T20:50:06.882Z,6.75
2022-08-17T20:52:51.335Z,6.97
2022-08-17T20:55:53.085Z,7.20
2022-08-17T20:58:48.838Z,7.10
2022-08-17T21:01:24.158Z,6.47
2022-08-17T21:03:56.015Z,6.68
2022-08-17T21:06:26.154Z,6.28
2022-08-17T21:08:59.666Z,6.47
2022-08-17T21:12:04.480Z,6.47
2022-08-17T21:14:56.146Z,6.30
2022-08-17T21:17:45.295Z,6.32
2022-08-17T21:20:32.203Z,6.15
2022-08-17T21:23:27.270Z,6.25
2022-08-17T21:26:17.507Z,6.53
2022-08-17T21:29:01.580Z,6.35
2022-08-17T21:31:50.830Z,6.80
2022-08-17T21:34:27.217Z,6.43
2022-08-17T21:37:23.324Z,6.50
2022-08-17T21:39:54.202Z,6.60
2022-08-17T21:42:25.915Z,7.00
2022-08-17T21:44:58.925Z,7.10
2022-08-17T21:47:30.854Z,6.70
2022-08-17T21:50:16.308Z,6.97
2022-08-17T21:52:45.931Z,6.78
2022-08-17T21:55:22.888Z,7.00
2022-08-17T21:58:12.173Z,7.40
2022-08-17T22:00:39.329Z,6.95
2022-08-17T22:03:21.999Z,7.28
2022-08-17T22:05:51.291Z,7.45
2022-08-17T22:08:25.344Z,6.90
2022-08-17T22:11:01.728Z,7.50
2022-08-17T22:13:30.136Z,7.32
2022-08-17T22:16:15.468Z,7.43
2022-08-17T22:18:57.722Z,7.80
2022-08-17T22:21:25.591Z,7.55
2022-08-17T22:24:07.326Z,7.18
2022-08-17T22:27:06.916Z,7.80
2022-08-17T22:29:53.233Z,7.05
2022-08-17T22:32:41.356Z,7.72
2022-08-17T22:35:28.421Z,7.45
2022-08-17T22:37:56.273Z,8.27
2022-08-17T22:40:31.597Z,7.80
2022-08-17T22:43:01.277Z,7.93
2022-08-17T22:45:29.769Z,8.50
2022-08-17T22:47:59.677Z,8.27
2022-08-17T22:50:31.355Z,7.88
2022-08-17T22:53:19.038Z,6.95
2022-08-17T22:56:11.051Z,7.32
2022-08-17T22:59:02.858Z,7.70
2022-08-17T23:01:33.322Z,7.05
2022-08-17T23:04:02.861Z,7.97
2022-08-17T23:06:33.705Z,7.30
2022-08-17T23:09:03.858Z,7.25
2022-08-17T23:11:47.899Z,8.00
2022-08-17T23:14:19.973Z,8.20
2022-08-17T23:16:48.641Z,7.40
2022-08-17T23:19:18.646Z,7.95
2022-08-17T23:21:46.873Z,7.20
2022-08-17T23:24:20.419Z,7.15
2022-08-17T23:26:49.838Z,7.65
2022-08-17T23:29:20.527Z,8.15
2022-08-17T23:31:49.175Z,8.02
2022-08-17T23:34:18.441Z,7.70
2022-08-17T23:36:52.452Z,7.68
2022-08-17T23:39:27.725Z,8.55
2022-08-17T23:41:58.671Z,7.90
2022-08-17T23:44:27.204Z,7.70
2022-08-17T23:46:55.578Z,7.40
2022-08-17T23:49:23.458Z,8.32
2022-08-17T23:51:52.528Z,8.27
2022-08-17T23:54:24.910Z,8.30
2022-08-17T23:56:52.801Z,8.07
2022-08-17T23:59:23.680Z,8.85
